Time;durP1;ratioP1;P1;durP2;ratioP2;P2;SDS_P1;SDS_P2;PMS_P1;PMS_P2;Temp;Humidity;BMP_temperature;BMP_pressure;BME280_temperature;BME280_humidity;BME280_pressure;Samples;Min_cycle;Max_cycle;Signal;HPM_P1;HPM_P2
2022/05/16 00:00:19;;;;;;;2.97;2.80;;;12.40;99.90;;;;;;6246026;22;20012;-89
2022/05/16 00:02:47;;;;;;;4.60;2.78;;;12.40;99.90;;;;;;6271608;22;20339;-89
2022/05/16 00:05:15;;;;;;;4.95;3.20;;;12.30;99.90;;;;;;6277885;22;20016;-90
2022/05/16 00:07:43;;;;;;;6.47;4.35;;;12.30;99.90;;;;;;6271246;22;20343;-90
2022/05/16 00:10:11;;;;;;;4.05;3.10;;;12.30;99.90;;;;;;6274030;22;20023;-89
2022/05/16 00:12:39;;;;;;;4.38;3.33;;;12.40;99.90;;;;;;6271743;22;20027;-90
2022/05/16 00:15:09;;;;;;;4.18;3.78;;;12.30;99.90;;;;;;6282998;22;20016;-89
2022/05/16 00:17:36;;;;;;;3.40;3.10;;;12.20;99.90;;;;;;6245417;22;20488;-82
2022/05/16 00:20:09;;;;;;;3.55;3.20;;;12.10;99.90;;;;;;6281814;22;20018;-82
2022/05/16 00:22:37;;;;;;;3.38;2.63;;;12.00;99.90;;;;;;6307295;22;20046;-81
2022/05/16 00:25:07;;;;;;;2.67;2.47;;;12.00;99.90;;;;;;6278250;22;20015;-82
2022/05/16 00:27:35;;;;;;;9.43;2.38;;;12.10;99.90;;;;;;6283803;22;20062;-82
2022/05/16 00:30:09;;;;;;;3.25;2.90;;;12.20;99.90;;;;;;6273517;22;20335;-81
2022/05/16 00:32:37;;;;;;;7.05;2.55;;;12.20;99.90;;;;;;6279737;22;20031;-81
2022/05/16 00:35:06;;;;;;;3.00;2.80;;;12.20;99.90;;;;;;6283548;22;20023;-81
2022/05/16 00:37:34;;;;;;;3.78;3.22;;;12.20;99.90;;;;;;6274883;22;20034;-81
2022/05/16 00:40:03;;;;;;;2.55;2.35;;;12.10;99.90;;;;;;6281779;22;20019;-81
2022/05/16 00:42:31;;;;;;;7.32;2.35;;;12.00;99.90;;;;;;6283865;22;20011;-88
2022/05/16 00:44:59;;;;;;;3.78;2.17;;;12.10;99.90;;;;;;6276701;22;20462;-88
2022/05/16 00:47:26;;;;;;;2.55;2.25;;;12.00;99.90;;;;;;6271258;22;20020;-88
2022/05/16 00:49:55;;;;;;;5.30;2.78;;;12.10;99.90;;;;;;6270498;22;20023;-88
2022/05/16 00:52:30;;;;;;;2.78;2.33;;;12.10;99.90;;;;;;6244950;22;20016;-88
2022/05/16 00:55:13;;;;;;;2.25;2.05;;;12.20;99.90;;;;;;6256456;22;20461;-88
2022/05/16 00:57:54;;;;;;;4.68;2.50;;;12.30;99.90;;;;;;6245169;22;20035;-89
2022/05/16 01:00:33;;;;;;;4.63;2.65;;;12.50;99.90;;;;;;6246300;22;20027;-89
2022/05/16 01:06:00;;;;;;;2.88;2.67;;;12.20;99.90;;;;;;6271939;22;20027;-88
2022/05/16 01:08:31;;;;;;;4.90;2.53;;;11.90;99.90;;;;;;6270848;22;20028;-89
2022/05/16 01:11:03;;;;;;;3.63;3.30;;;11.80;99.90;;;;;;6282158;22;20007;-89
2022/05/16 01:13:30;;;;;;;;;;;11.80;99.90;;;;;;6250132;22;20473;-88
2022/05/16 01:16:00;;;;;;;2.72;2.53;;;11.80;99.90;;;;;;6245601;22;19919;-88
2022/05/16 01:18:28;;;;;;;5.22;2.30;;;11.80;99.90;;;;;;6221327;22;20035;-89
2022/05/16 01:21:11;;;;;;;4.65;2.47;;;11.90;99.90;;;;;;6245242;22;20030;-88
2022/05/16 01:23:47;;;;;;;3.40;2.45;;;12.00;99.90;;;;;;6256773;22;20027;-88
2022/05/16 01:26:26;;;;;;;2.80;2.50;;;12.00;99.90;;;;;;6219815;22;20020;-88
2022/05/16 01:28:55;;;;;;;5.03;3.92;;;12.00;99.90;;;;;;6220435;22;20366;-88
2022/05/16 01:31:23;;;;;;;2.90;2.20;;;12.00;99.90;;;;;;6281623;22;20435;-89
2022/05/16 01:33:51;;;;;;;3.25;2.63;;;12.10;99.90;;;;;;6220576;22;20034;-89
2022/05/16 01:36:19;;;;;;;3.00;2.70;;;12.00;99.90;;;;;;6270151;22;20019;-88
2022/05/16 01:38:48;;;;;;;2.65;2.45;;;12.00;99.90;;;;;;6272546;22;20339;-89
2022/05/16 01:41:22;;;;;;;2.60;2.42;;;12.00;99.90;;;;;;6247905;22;20028;-88
2022/05/16 01:43:56;;;;;;;11.35;3.92;;;11.90;99.90;;;;;;6258190;22;20019;-88
2022/05/16 01:46:33;;;;;;;9.35;2.92;;;11.80;99.90;;;;;;6221971;22;20312;-89
2022/05/16 01:49:02;;;;;;;4.60;2.97;;;11.60;99.90;;;;;;6278340;22;20023;-88
2022/05/16 01:51:29;;;;;;;5.40;3.05;;;11.60;99.90;;;;;;6271995;22;20023;-88
2022/05/16 01:53:58;;;;;;;5.80;3.40;;;11.50;99.90;;;;;;6248904;22;20032;-87
2022/05/16 01:56:26;;;;;;;2.35;2.15;;;11.50;99.90;;;;;;6282161;22;20020;-87
2022/05/16 01:58:53;;;;;;;3.80;2.58;;;11.60;99.90;;;;;;6246810;22;20020;-83
2022/05/16 02:01:21;;;;;;;6.88;2.95;;;11.50;99.90;;;;;;6246599;22;20561;-85
2022/05/16 02:03:49;;;;;;;9.65;3.47;;;11.50;99.90;;;;;;6272270;22;20023;-84
2022/05/16 02:06:18;;;;;;;3.10;2.80;;;11.60;99.90;;;;;;6251344;22;20034;-84
2022/05/16 02:08:47;;;;;;;4.82;2.33;;;11.70;99.90;;;;;;6270780;22;20027;-84
2022/05/16 02:11:16;;;;;;;6.07;2.78;;;11.70;99.90;;;;;;6283464;22;20023;-84
2022/05/16 02:13:47;;;;;;;2.85;2.40;;;11.50;99.90;;;;;;6275437;22;20020;-84
2022/05/16 02:16:15;;;;;;;2.42;2.30;;;11.30;99.90;;;;;;6282461;22;20042;-84
2022/05/16 02:18:42;;;;;;;10.00;4.35;;;11.30;99.90;;;;;;6308350;22;20531;-86
2022/05/16 02:26:47;;;;;;;2.70;2.50;;;11.20;99.90;;;;;;6272351;22;20016;-83
2022/05/16 02:29:17;;;;;;;4.13;3.00;;;11.30;99.90;;;;;;6274852;22;20024;-84
2022/05/16 02:31:46;;;;;;;2.40;2.30;;;11.40;99.90;;;;;;6247159;22;20020;-85
2022/05/16 02:34:15;;;;;;;17.15;4.43;;;11.50;99.90;;;;;;6246990;22;20346;-85
2022/05/16 02:36:44;;;;;;;5.80;3.95;;;11.60;99.90;;;;;;6280044;22;20023;-85
2022/05/16 02:39:13;;;;;;;6.63;2.15;;;11.60;99.90;;;;;;6284061;22;20019;-83
2022/05/16 02:41:44;;;;;;;2.65;2.35;;;11.40;99.90;;;;;;6276227;22;20020;-83
2022/05/16 02:44:35;;;;;;;3.55;3.25;;;11.20;99.90;;;;;;6259568;22;20015;-85
2022/05/16 02:47:58;;;;;;;17.33;5.35;;;11.00;99.90;;;;;;6292688;22;20439;-84
2022/05/16 02:51:14;;;;;;;6.25;4.18;;;10.90;99.90;;;;;;6280990;22;20042;-83
2022/05/16 02:54:25;;;;;;;3.70;3.25;;;11.00;99.90;;;;;;6273836;22;20476;-83
2022/05/16 02:57:10;;;;;;;3.58;3.28;;;11.10;99.90;;;;;;6278389;22;20023;-84
2022/05/16 02:59:39;;;;;;;4.15;3.90;;;11.40;99.90;;;;;;6284492;22;20016;-85
2022/05/16 03:02:09;;;;;;;3.42;2.50;;;11.50;99.90;;;;;;6220593;22;20030;-85
2022/05/16 03:04:38;;;;;;;3.08;2.83;;;11.60;99.90;;;;;;6253906;22;20034;-85
2022/05/16 03:07:06;;;;;;;15.20;6.28;;;11.40;99.90;;;;;;6283874;22;20457;-84
2022/05/16 03:09:34;;;;;;;5.00;3.35;;;11.30;99.90;;;;;;6271153;22;20451;-84
2022/05/16 03:12:02;;;;;;;4.90;3.35;;;11.20;99.90;;;;;;6307498;22;20016;-83
2022/05/16 03:14:30;;;;;;;10.25;5.05;;;11.00;99.90;;;;;;6284304;22;20016;-83
2022/05/16 03:16:58;;;;;;;4.57;3.88;;;10.90;99.90;;;;;;6276627;22;20036;-84
2022/05/16 03:19:26;;;;;;;3.42;3.13;;;11.00;99.90;;;;;;6271150;22;20431;-84
2022/05/16 03:21:54;;;;;;;4.00;3.60;;;11.10;99.90;;;;;;6271093;22;20024;-84
2022/05/16 03:24:22;;;;;;;5.53;3.90;;;11.20;99.90;;;;;;6279868;22;20020;-84
2022/05/16 03:26:52;;;;;;;3.60;3.33;;;11.30;99.90;;;;;;6284610;22;20594;-84
2022/05/16 03:29:20;;;;;;;4.25;2.95;;;11.30;99.90;;;;;;6300932;22;20438;-85
2022/05/16 03:31:48;;;;;;;3.42;2.78;;;11.30;99.90;;;;;;6282380;22;20019;-84
2022/05/16 03:34:16;;;;;;;6.50;3.53;;;11.30;99.90;;;;;;6271678;22;20034;-85
2022/05/16 03:36:44;;;;;;;6.88;3.88;;;11.20;99.90;;;;;;6279261;22;20024;-85
2022/05/16 03:41:58;;;;;;;4.68;3.38;;;11.20;99.90;;;;;;6219780;22;20027;-85
2022/05/16 03:44:26;;;;;;;3.58;3.28;;;11.30;99.90;;;;;;6280648;22;20019;-84
2022/05/16 03:46:54;;;;;;;9.95;3.47;;;11.30;99.90;;;;;;6283544;22;20027;-85
2022/05/16 03:49:26;;;;;;;10.68;3.38;;;11.40;99.90;;;;;;6270602;22;20028;-84
2022/05/16 03:51:54;;;;;;;4.07;3.42;;;11.50;99.90;;;;;;6282589;22;20034;-84
2022/05/16 03:54:22;;;;;;;5.38;3.40;;;11.50;99.90;;;;;;6283733;22;20752;-85
2022/05/16 03:56:50;;;;;;;8.63;4.43;;;11.40;99.90;;;;;;6277366;22;20023;-85
2022/05/16 03:59:17;;;;;;;4.55;3.28;;;11.50;99.90;;;;;;6271591;22;20031;-85
2022/05/16 04:01:45;;;;;;;4.15;3.80;;;11.50;99.90;;;;;;6272611;22;20024;-85
2022/05/16 04:04:15;;;;;;;5.32;4.15;;;11.60;99.90;;;;;;6271094;22;20026;-84
2022/05/16 04:06:45;;;;;;;;;;;11.70;99.90;;;;;;6307586;22;20347;-85
2022/05/16 04:09:13;;;;;;;3.40;3.10;;;11.90;99.90;;;;;;6294771;22;19922;-84
2022/05/16 04:11:41;;;;;;;11.32;3.42;;;11.90;99.90;;;;;;6313457;22;20018;-85
2022/05/16 04:14:10;;;;;;;8.65;5.47;;;11.90;99.90;;;;;;6303012;22;20035;-85
2022/05/16 04:16:40;;;;;;;6.82;5.15;;;11.90;99.90;;;;;;6310785;22;20454;-85
2022/05/16 04:19:08;;;;;;;8.95;4.60;;;11.80;99.90;;;;;;6314200;22;20465;-84
2022/05/16 04:21:39;;;;;;;3.80;3.50;;;11.80;99.90;;;;;;6305200;22;20034;-85
2022/05/16 04:24:08;;;;;;;3.13;2.65;;;11.90;99.90;;;;;;6312717;22;20419;-84
2022/05/16 04:26:36;;;;;;;4.05;3.50;;;11.90;99.90;;;;;;6312353;22;20015;-85
2022/05/16 04:29:04;;;;;;;6.60;4.68;;;11.90;99.90;;;;;;6308289;22;20023;-84
2022/05/16 04:31:32;;;;;;;3.70;3.38;;;11.90;99.90;;;;;;6312502;22;20015;-85
2022/05/16 04:34:00;;;;;;;8.02;4.20;;;12.00;99.90;;;;;;6276825;22;20034;-85
2022/05/16 04:36:28;;;;;;;5.60;3.28;;;12.00;99.90;;;;;;6310368;22;20030;-84
2022/05/16 04:38:56;;;;;;;3.63;3.28;;;12.00;99.90;;;;;;6286831;22;20011;-85
2022/05/16 04:44:10;;;;;;;4.07;3.70;;;12.30;99.90;;;;;;6275888;22;20342;-85
2022/05/16 04:46:39;;;;;;;5.85;2.97;;;12.50;99.90;;;;;;6314135;22;20023;-84
2022/05/16 04:49:15;;;;;;;8.07;2.97;;;12.60;99.90;;;;;;6305512;22;20019;-84
2022/05/16 04:51:43;;;;;;;2.88;2.67;;;12.70;99.90;;;;;;6313641;22;20026;-84
2022/05/16 04:54:10;;;;;;;4.63;3.08;;;12.80;99.90;;;;;;6302333;22;20030;-84
2022/05/16 04:56:38;;;;;;;5.15;4.65;;;12.80;99.90;;;;;;6310380;22;20034;-81
2022/05/16 04:59:07;;;;;;;4.05;3.58;;;12.90;99.90;;;;;;6313671;22;20338;-80
2022/05/16 05:01:35;;;;;;;5.15;3.58;;;12.90;99.90;;;;;;6252888;22;20027;-80
2022/05/16 05:04:03;;;;;;;4.07;3.67;;;13.00;99.90;;;;;;6312928;22;20019;-81
2022/05/16 05:06:31;;;;;;;4.25;3.88;;;13.00;99.90;;;;;;6313392;22;20019;-81
2022/05/16 05:08:58;;;;;;;7.00;4.63;;;13.10;99.90;;;;;;6307917;22;20027;-79
2022/05/16 05:14:34;;;;;;;8.65;3.08;;;13.30;99.90;;;;;;6276172;22;20028;-85
2022/05/16 05:17:08;;;;;;;4.28;3.25;;;13.20;99.90;;;;;;6283344;22;20023;-83
2022/05/16 05:19:40;;;;;;;3.90;3.33;;;13.20;99.90;;;;;;6252457;22;20019;-83
2022/05/16 05:22:08;;;;;;;4.25;3.70;;;13.30;99.90;;;;;;6305316;22;20327;-83
2022/05/16 05:24:36;;;;;;;5.32;4.82;;;13.30;99.90;;;;;;6227374;22;20019;-83
2022/05/16 05:27:06;;;;;;;8.40;4.35;;;13.30;99.90;;;;;;6253231;22;20015;-84
2022/05/16 05:29:34;;;;;;;5.55;4.32;;;13.30;99.90;;;;;;6308584;22;20038;-82
2022/05/16 05:32:02;;;;;;;7.05;4.65;;;13.20;99.90;;;;;;6314920;22;20434;-83
2022/05/16 05:34:34;;;;;;;5.63;3.60;;;13.30;99.90;;;;;;6288865;22;20465;-82
2022/05/16 05:37:02;;;;;;;5.15;3.85;;;13.50;99.90;;;;;;6282135;22;20023;-82
2022/05/16 05:39:31;;;;;;;5.32;3.47;;;13.60;99.90;;;;;;6315782;22;20011;-83
2022/05/16 05:41:59;;;;;;;5.05;4.35;;;13.60;99.90;;;;;;6306729;22;20031;-82
2022/05/16 05:44:27;;;;;;;5.57;4.35;;;13.60;99.90;;;;;;6286004;22;20019;-83
2022/05/16 05:46:55;;;;;;;9.35;4.57;;;13.50;99.90;;;;;;6288117;22;20454;-83
2022/05/16 05:49:22;;;;;;;13.88;4.88;;;13.50;99.90;;;;;;6281515;22;20030;-84
2022/05/16 05:51:50;;;;;;;5.70;5.18;;;13.60;99.90;;;;;;6315765;22;20012;-82
2022/05/16 05:54:18;;;;;;;3.95;3.58;;;13.70;99.90;;;;;;6278461;22;20046;-82
2022/05/16 05:56:47;;;;;;;10.63;6.80;;;13.80;99.90;;;;;;6311596;22;20019;-83
2022/05/16 05:59:14;;;;;;;5.38;4.85;;;13.90;99.90;;;;;;6315299;22;20019;-82
2022/05/16 06:01:42;;;;;;;5.15;4.75;;;14.00;99.90;;;;;;6252033;22;20057;-83
2022/05/16 06:04:11;;;;;;;12.10;5.00;;;14.20;99.90;;;;;;6227376;22;20031;-82
2022/05/16 06:06:40;;;;;;;6.57;5.20;;;14.20;99.90;;;;;;6288563;22;20725;-83
2022/05/16 06:09:08;;;;;;;7.60;4.05;;;14.40;99.90;;;;;;6277575;22;20022;-82
2022/05/16 06:11:36;;;;;;;4.22;3.88;;;14.80;99.90;;;;;;6303859;22;20350;-83
2022/05/16 06:14:03;;;;;;;6.28;3.50;;;15.20;99.90;;;;;;6226579;22;20030;-82
2022/05/16 06:16:31;;;;;;;5.05;4.55;;;15.30;99.90;;;;;;6312455;22;20071;-82
2022/05/16 06:18:59;;;;;;;5.05;4.60;;;15.30;99.90;;;;;;6303771;22;20070;-83
2022/05/16 06:21:27;;;;;;;5.18;3.88;;;15.60;99.90;;;;;;6280425;22;20027;-83
2022/05/16 06:23:54;;;;;;;3.92;3.58;;;15.90;99.90;;;;;;6312909;22;20019;-83
2022/05/16 06:26:22;;;;;;;9.82;6.00;;;16.50;99.90;;;;;;6288477;22;20008;-83
2022/05/16 06:28:50;;;;;;;3.92;3.63;;;17.10;99.90;;;;;;6283463;22;20410;-83
2022/05/16 06:31:18;;;;;;;3.97;3.38;;;17.70;99.90;;;;;;6314202;22;20334;-82
2022/05/16 06:33:47;;;;;;;6.45;4.72;;;17.70;99.90;;;;;;6307775;22;20027;-82
2022/05/16 06:36:16;;;;;;;4.97;4.53;;;17.80;99.90;;;;;;6312626;22;20019;-83
2022/05/16 06:38:44;;;;;;;4.45;4.07;;;18.40;99.90;;;;;;6283553;22;20322;-82
2022/05/16 06:41:11;;;;;;;6.07;3.55;;;19.00;99.90;;;;;;6276530;22;20030;-83
2022/05/16 06:43:39;;;;;;;13.40;5.85;;;18.80;99.90;;;;;;6313579;22;20015;-83
2022/05/16 06:46:07;;;;;;;5.28;3.47;;;18.40;99.90;;;;;;6277892;22;20027;-83
2022/05/16 06:48:35;;;;;;;4.22;3.83;;;17.90;99.90;;;;;;6308609;22;20030;-83
2022/05/16 06:51:03;;;;;;;4.63;4.20;;;17.40;99.90;;;;;;6313485;22;20011;-83
2022/05/16 06:53:31;;;;;;;6.93;4.60;;;17.60;99.90;;;;;;6305487;22;20023;-83
2022/05/16 06:56:00;;;;;;;4.97;3.85;;;18.00;99.90;;;;;;6283644;22;20011;-85
2022/05/16 06:58:27;;;;;;;5.43;3.85;;;18.30;99.90;;;;;;6312134;22;20018;-83
2022/05/16 07:00:56;;;;;;;5.18;4.53;;;18.50;99.90;;;;;;6282238;22;20023;-83
2022/05/16 07:03:24;;;;;;;6.53;4.43;;;19.10;99.90;;;;;;6288122;22;20418;-83
2022/05/16 07:05:52;;;;;;;4.30;4.00;;;19.70;99.90;;;;;;6303659;22;20034;-84
2022/05/16 07:08:21;;;;;;;4.97;4.57;;;20.10;99.90;;;;;;6248937;22;20023;-84
2022/05/16 07:10:50;;;;;;;14.80;4.63;;;20.30;99.90;;;;;;6315693;22;20658;-83
2022/05/16 07:13:27;;;;;;;8.00;5.22;;;20.00;99.90;;;;;;6306947;22;20020;-83
2022/05/16 07:15:55;;;;;;;8.55;4.85;;;19.50;99.90;;;;;;6302735;22;20030;-83
2022/05/16 07:18:24;;;;;;;4.97;4.50;;;19.30;99.90;;;;;;6261957;22;20054;-84
2022/05/16 07:20:52;;;;;;;6.68;5.45;;;19.00;99.90;;;;;;6251151;22;20015;-84
2022/05/16 07:23:20;;;;;;;16.45;4.88;;;18.80;99.90;;;;;;6251176;22;20019;-83
2022/05/16 07:28:37;;;;;;;6.15;4.55;;;18.60;99.90;;;;;;6311122;22;20015;-83
2022/05/16 07:31:05;;;;;;;4.93;4.47;;;18.60;99.90;;;;;;6287169;22;20015;-83
2022/05/16 07:33:34;;;;;;;6.43;4.85;;;18.80;99.90;;;;;;6276319;22;20466;-83
2022/05/16 07:36:03;;;;;;;5.07;4.65;;;18.90;99.90;;;;;;6285818;22;20015;-83
2022/05/16 07:38:31;;;;;;;5.63;5.13;;;19.00;99.90;;;;;;6315084;22;20330;-82
2022/05/16 07:40:59;;;;;;;5.05;4.63;;;18.90;99.90;;;;;;6282828;22;20030;-83
2022/05/16 07:43:27;;;;;;;6.13;5.63;;;18.90;99.90;;;;;;6314854;22;20011;-83
2022/05/16 07:45:55;;;;;;;5.63;5.13;;;19.00;99.90;;;;;;6276232;22;20026;-83
2022/05/16 07:48:23;;;;;;;8.98;5.70;;;19.10;99.90;;;;;;6225687;22;20022;-83
2022/05/16 07:50:50;;;;;;;7.70;4.80;;;19.20;99.90;;;;;;6277163;22;20016;-83
2022/05/16 07:53:19;;;;;;;18.05;5.13;;;19.20;99.90;;;;;;6280497;22;20023;-82
2022/05/16 07:55:53;;;;;;;2.88;2.70;;;19.10;99.90;;;;;;6315180;22;20342;-83
2022/05/16 07:58:25;;;;;;;3.35;3.13;;;19.20;99.90;;;;;;6302993;22;20383;-83
2022/05/16 08:00:55;;;;;;;3.53;3.22;;;19.40;99.90;;;;;;6308048;22;20027;-83
2022/05/16 08:03:25;;;;;;;5.45;4.43;;;19.50;99.90;;;;;;6287096;22;20484;-84
2022/05/16 08:05:53;;;;;;;3.75;3.38;;;19.60;99.90;;;;;;6275016;22;20019;-83
2022/05/16 08:11:13;;;;;;;4.50;4.10;;;19.60;99.90;;;;;;6276753;22;20326;-83
2022/05/16 08:13:43;;;;;;;9.77;4.18;;;19.70;99.90;;;;;;6250831;22;20034;-83
2022/05/16 08:16:16;;;;;;;5.85;3.78;;;19.80;99.90;;;;;;6250556;22;20019;-86
2022/05/16 08:18:44;;;;;;;8.38;5.38;;;19.80;99.90;;;;;;6287249;22;20015;-81
2022/05/16 08:21:12;;;;;;;4.28;3.10;;;19.90;99.90;;;;;;6307146;22;20023;-84
2022/05/16 08:23:40;;;;;;;12.20;3.65;;;20.00;99.90;;;;;;6276632;22;20015;-81
2022/05/16 08:26:08;;;;;;;3.45;3.13;;;20.10;99.90;;;;;;6277580;22;20015;-81
2022/05/16 08:28:36;;;;;;;2.65;2.42;;;20.20;99.90;;;;;;6283518;22;20019;-86
2022/05/16 08:31:06;;;;;;;3.25;2.85;;;20.20;99.90;;;;;;6286564;22;20007;-82
2022/05/16 08:33:35;;;;;;;3.65;2.83;;;20.30;99.90;;;;;;6306591;22;20034;-80
2022/05/16 08:41:55;;;;;;;3.05;2.85;;;21.10;99.90;;;;;;6276008;22;20027;-83
2022/05/16 08:44:42;;;;;;;5.95;3.33;;;20.90;99.90;;;;;;6307331;22;20026;-80
2022/05/16 08:47:40;;;;;;;2.42;2.22;;;20.80;99.90;;;;;;6314068;22;20015;-83
2022/05/16 08:50:18;;;;;;;19.02;4.22;;;20.80;99.90;;;;;;6274382;22;20030;-82
2022/05/16 08:52:58;;;;;;;6.13;3.50;;;21.00;99.90;;;;;;6308701;22;20038;-77
2022/05/16 08:55:50;;;;;;;5.35;3.90;;;21.00;99.90;;;;;;6286717;22;20011;-80
2022/05/16 08:58:35;;;;;;;6.93;4.00;;;20.80;99.90;;;;;;6302420;22;20027;-79
2022/05/16 09:01:07;;;;;;;4.75;3.80;;;20.80;99.90;;;;;;6280175;22;20027;-81
2022/05/16 09:03:48;;;;;;;5.90;4.07;;;20.80;99.90;;;;;;6312765;22;20022;-79
2022/05/16 09:06:34;;;;;;;5.00;3.50;;;20.60;99.90;;;;;;6275266;22;20763;-80
2022/05/16 09:09:12;;;;;;;10.02;3.63;;;20.60;99.90;;;;;;6307427;22;20027;-81
2022/05/16 09:11:58;;;;;;;5.88;2.42;;;20.70;99.90;;;;;;6313933;22;20019;-79
2022/05/16 09:14:34;;;;;;;4.15;2.58;;;20.80;99.90;;;;;;6271673;22;20028;-80
2022/05/16 09:17:11;;;;;;;2.25;2.13;;;20.90;99.90;;;;;;6277299;22;20031;-80
2022/05/16 09:20:06;;;;;;;3.50;2.33;;;21.00;99.90;;;;;;6283047;22;20023;-78
2022/05/16 09:23:07;;;;;;;5.63;2.67;;;21.10;99.90;;;;;;6228228;22;20027;-79
2022/05/16 09:25:47;;;;;;;;;;;21.10;99.90;;;;;;6297044;22;20023;-79
2022/05/16 09:28:35;;;;;;;2.47;1.90;;;21.00;99.90;;;;;;6311185;22;19925;-80
2022/05/16 09:31:28;;;;;;;3.85;3.15;;;20.90;99.90;;;;;;6276061;22;20116;-80
2022/05/16 09:33:58;;;;;;;1.55;1.45;;;20.80;99.90;;;;;;6304175;22;20023;-79
2022/05/16 09:36:32;;;;;;;5.15;2.45;;;20.60;99.90;;;;;;6219072;22;20023;-81
2022/05/16 09:39:01;;;;;;;6.30;1.92;;;20.50;99.90;;;;;;6282808;22;20012;-80
2022/05/16 09:41:38;;;;;;;3.38;1.98;;;20.50;99.90;;;;;;6244831;22;20028;-78
2022/05/16 09:44:27;;;;;;;2.40;1.90;;;20.50;99.90;;;;;;6279726;22;20007;-81
2022/05/16 09:47:22;;;;;;;2.03;1.52;;;20.20;99.90;;;;;;6283167;22;20015;-78
2022/05/16 09:50:02;;;;;;;3.05;2.40;;;20.20;99.90;;;;;;6273835;22;20023;-79
2022/05/16 09:52:32;;;;;;;3.13;1.88;;;20.20;99.90;;;;;;6251990;22;20016;-79
2022/05/16 09:55:06;;;;;;;3.08;1.98;;;20.10;99.90;;;;;;6283052;22;20046;-81
2022/05/16 09:57:53;;;;;;;4.05;2.25;;;20.00;99.90;;;;;;6274533;22;20058;-77
2022/05/16 10:00:30;;;;;;;2.08;1.70;;;20.00;99.90;;;;;;6254159;22;20027;-80
2022/05/16 10:03:22;;;;;;;3.20;2.10;;;20.00;99.90;;;;;;6284389;22;20016;-81
2022/05/16 10:05:51;;;;;;;5.82;2.38;;;20.10;99.90;;;;;;6275359;22;20023;-81
2022/05/16 10:08:39;;;;;;;3.53;1.98;;;20.20;99.90;;;;;;6279778;22;20023;-80
2022/05/16 10:11:21;;;;;;;4.40;2.05;;;20.20;99.90;;;;;;6284765;22;20027;-81
2022/05/16 10:13:49;;;;;;;2.10;1.90;;;20.20;99.90;;;;;;6249221;22;20032;-85
2022/05/16 10:16:20;;;;;;;3.10;2.35;;;20.10;99.90;;;;;;6246094;22;20027;-80
2022/05/16 10:19:03;;;;;;;2.90;2.47;;;20.00;99.90;;;;;;6284615;22;20046;-83
2022/05/16 10:21:41;;;;;;;5.85;1.98;;;19.90;99.90;;;;;;6245762;22;20031;-80
2022/05/16 10:24:12;;;;;;;1.73;1.58;;;19.90;99.90;;;;;;6221411;22;20450;-80
2022/05/16 10:26:43;;;;;;;3.00;2.60;;;19.70;99.90;;;;;;6222582;22;20016;-80
2022/05/16 10:29:19;;;;;;;12.48;1.50;;;19.60;99.90;;;;;;6276586;22;20024;-80
2022/05/16 10:34:46;;;;;;;3.22;2.03;;;19.60;99.90;;;;;;6287817;22;20034;-79
2022/05/16 10:37:17;;;;;;;2.95;2.33;;;19.70;99.90;;;;;;6304239;22;20038;-81
2022/05/16 10:39:51;;;;;;;2.80;1.98;;;19.70;99.90;;;;;;6287622;22;20350;-83
2022/05/16 10:42:38;;;;;;;1.80;1.55;;;19.70;99.90;;;;;;6226897;22;20359;-83
2022/05/16 10:45:37;;;;;;;1.80;1.50;;;19.70;99.90;;;;;;6276944;22;20031;-85
2022/05/16 10:48:39;;;;;;;1.42;1.33;;;19.70;99.90;;;;;;6284634;22;20442;-83
2022/05/16 10:51:27;;;;;;;3.53;1.73;;;19.90;99.90;;;;;;6251509;22;20038;-84
2022/05/16 10:54:13;;;;;;;1.75;1.58;;;20.00;99.90;;;;;;6251564;22;20035;-84
2022/05/16 10:57:24;;;;;;;2.78;2.20;;;20.00;99.90;;;;;;6276448;22;20019;-82
2022/05/16 11:00:08;;;;;;;2.15;1.55;;;20.30;99.90;;;;;;6261991;22;20497;-84
2022/05/16 11:02:55;;;;;;;3.97;2.05;;;20.60;99.90;;;;;;6229384;22;20023;-86
2022/05/16 11:05:46;;;;;;;6.13;2.17;;;20.40;99.90;;;;;;6235363;22;20024;-85
2022/05/16 11:08:38;;;;;;;2.05;1.67;;;20.30;99.90;;;;;;6249349;22;20642;-84
2022/05/16 11:11:34;;;;;;;2.80;1.70;;;20.00;99.90;;;;;;6314706;22;20015;-84
2022/05/16 11:14:27;;;;;;;2.53;1.65;;;20.00;99.90;;;;;;6277608;22;20027;-84
2022/05/16 11:17:05;;;;;;;2.03;1.47;;;20.10;99.90;;;;;;6289315;22;20032;-83
2022/05/16 11:19:44;;;;;;;1.52;1.42;;;20.00;99.90;;;;;;6257025;22;20012;-83
2022/05/16 11:22:44;;;;;;;2.53;1.77;;;19.90;99.90;;;;;;6245176;22;20027;-85
2022/05/16 11:26:01;;;;;;;1.70;1.60;;;19.80;99.90;;;;;;6165958;23;20028;-84
2022/05/16 11:33:14;;;;;;;12.57;2.42;;;19.90;99.90;;;;;;6275186;22;20843;-84
2022/05/16 11:35:53;;;;;;;1.40;1.30;;;19.80;99.90;;;;;;6276918;22;20019;-82
2022/05/16 11:38:39;;;;;;;1.38;1.27;;;19.80;99.90;;;;;;6250372;22;20065;-81
2022/05/16 11:41:28;;;;;;;3.22;1.85;;;19.70;99.90;;;;;;6250859;22;20454;-80
2022/05/16 11:44:20;;;;;;;5.57;2.15;;;19.60;99.90;;;;;;6311227;22;20015;-80
2022/05/16 11:46:52;;;;;;;1.10;1.08;;;19.50;99.90;;;;;;6285740;22;20023;-80
2022/05/16 11:49:49;;;;;;;2.10;1.90;;;19.50;99.90;;;;;;6249610;22;20042;-83
2022/05/16 11:52:47;;;;;;;1.38;1.33;;;19.30;99.90;;;;;;6219907;22;20473;-83
2022/05/16 12:01:26;;;;;;;4.00;1.67;;;18.70;99.90;;;;;;6288190;22;20022;-82
2022/05/16 12:04:35;;;;;;;4.75;1.20;;;18.60;99.90;;;;;;6282103;22;20012;-81
2022/05/16 12:07:31;;;;;;;1.70;1.60;;;18.50;99.90;;;;;;6257621;22;20020;-80
2022/05/16 12:10:08;;;;;;;2.10;1.30;;;18.50;99.90;;;;;;6297253;22;20027;-80
2022/05/16 12:13:07;;;;;;;2.90;1.63;;;18.40;99.90;;;;;;6270773;22;20015;-82
2022/05/16 12:15:38;;;;;;;1.63;1.52;;;18.50;99.90;;;;;;6221474;22;20458;-82
2022/05/16 12:18:33;;;;;;;3.92;1.48;;;18.50;99.90;;;;;;6271200;22;20046;-82
2022/05/16 12:21:19;;;;;;;1.83;1.60;;;18.50;99.90;;;;;;6219200;22;20023;-81
2022/05/16 12:23:49;;;;;;;2.03;1.73;;;18.60;99.90;;;;;;6281963;22;20026;-81
2022/05/16 12:26:28;;;;;;;1.38;1.27;;;18.70;99.90;;;;;;6300492;22;20023;-81
2022/05/16 12:29:09;;;;;;;4.50;1.88;;;18.80;99.90;;;;;;6294971;22;20026;-82
2022/05/16 12:31:49;;;;;;;2.47;1.67;;;19.00;99.90;;;;;;6282829;22;20015;-82
2022/05/16 12:34:44;;;;;;;1.90;1.80;;;19.00;99.90;;;;;;6271988;22;20020;-80
2022/05/16 12:37:15;;;;;;;1.60;1.50;;;19.00;99.90;;;;;;6267342;22;20024;-82
2022/05/16 12:39:55;;;;;;;1.73;1.63;;;19.00;99.90;;;;;;6295118;22;20030;-82
2022/05/16 12:42:38;;;;;;;2.17;1.95;;;19.10;99.90;;;;;;6272408;22;20035;-80
2022/05/16 12:45:37;;;;;;;5.57;2.08;;;19.00;99.90;;;;;;6277560;22;20481;-80
2022/05/16 12:48:47;;;;;;;2.15;1.77;;;19.10;99.90;;;;;;6231744;22;20015;-89
2022/05/16 12:51:20;;;;;;;5.20;2.60;;;19.30;99.90;;;;;;6216520;22;20016;-88
2022/05/16 12:54:15;;;;;;;1.58;1.20;;;19.50;99.90;;;;;;6245240;22;20015;-91
2022/05/16 12:56:55;;;;;;;2.13;1.77;;;19.50;99.90;;;;;;6245750;22;20459;-88
2022/05/16 12:59:59;;;;;;;2.40;1.70;;;19.60;99.90;;;;;;6221931;22;20018;-91
2022/05/16 13:17:53;;;;;;;1.73;1.63;;;20.20;99.90;;;;;;6223118;22;20489;-87
2022/05/16 13:31:02;;;;;;;4.03;2.40;;;21.20;99.90;;;;;;6072439;23;20013;-87
2022/05/16 13:37:13;;;;;;;21.58;2.47;;;21.70;99.90;;;;;;6132621;23;20024;-89
2022/05/16 13:39:47;;;;;;;7.90;2.47;;;21.60;99.90;;;;;;6204790;23;20028;-87
2022/05/16 13:42:51;;;;;;;3.13;2.10;;;21.60;99.90;;;;;;6161437;23;20032;-92
2022/05/16 13:45:42;;;;;;;5.90;3.08;;;21.70;99.90;;;;;;6140431;23;20506;-91
2022/05/16 13:48:42;;;;;;;2.67;2.47;;;22.00;99.90;;;;;;6223062;22;20020;-88
2022/05/16 13:51:15;;;;;;;2.33;2.10;;;22.00;99.90;;;;;;6240415;23;20458;-87
2022/05/16 13:58:20;;;;;;;2.47;2.28;;;22.10;99.90;;;;;;6170646;23;20354;-91
2022/05/16 14:01:17;;;;;;;3.88;2.42;;;22.40;99.90;;;;;;6129725;23;20364;-87
2022/05/16 14:04:28;;;;;;;4.13;2.25;;;22.40;99.90;;;;;;6155954;23;20487;-91
2022/05/16 14:07:26;;;;;;;1.83;1.73;;;22.40;99.90;;;;;;6185987;23;20013;-89
2022/05/16 14:10:09;;;;;;;1.98;1.80;;;22.50;99.90;;;;;;6189238;23;20084;-92
2022/05/16 14:12:49;;;;;;;2.42;2.20;;;22.50;99.90;;;;;;6174549;23;20343;-90
2022/05/16 14:15:25;;;;;;;4.35;2.67;;;22.40;99.90;;;;;;6202098;23;20023;-90
2022/05/16 14:18:29;;;;;;;2.90;2.00;;;22.30;99.90;;;;;;6216096;23;20031;-90
2022/05/16 14:22:01;;;;;;;3.10;2.42;;;22.20;99.90;;;;;;6168347;23;20036;-89
2022/05/16 14:24:39;;;;;;;2.95;2.38;;;22.00;99.90;;;;;;6131105;23;20025;-88
2022/05/16 14:27:24;;;;;;;2.20;2.00;;;22.10;99.90;;;;;;6163760;23;20028;-87
2022/05/16 14:30:13;;;;;;;2.42;2.22;;;22.10;99.90;;;;;;6104786;23;20477;-88
2022/05/16 14:32:58;;;;;;;6.32;2.17;;;22.20;99.90;;;;;;6159846;23;20017;-89
2022/05/16 14:35:34;;;;;;;18.45;2.50;;;22.30;99.90;;;;;;6133191;23;20368;-90
2022/05/16 14:38:09;;;;;;;2.22;1.65;;;22.20;99.90;;;;;;6153036;23;20028;-88
2022/05/16 14:40:40;;;;;;;1.67;1.58;;;22.10;99.90;;;;;;6154892;23;20024;-89
2022/05/16 14:43:12;;;;;;;5.30;3.55;;;22.10;99.90;;;;;;6160249;23;20445;-89
2022/05/16 14:49:03;;;;;;;5.72;2.22;;;22.00;99.90;;;;;;6200378;23;20024;-88